sensor_id;sensor_type;location;lat;lon;timestamp;P1;durP1;ratioP1;P2;durP2;ratioP2
48028;SDS011;33808;37.368;127.108;2023-01-19T01:52:14;7.68;;;3.80;;
48028;SDS011;33808;37.368;127.108;2023-01-19T01:54:46;8.27;;;4.45;;
48028;SDS011;33808;37.368;127.108;2023-01-19T01:57:16;9.10;;;4.07;;
48028;SDS011;33808;37.368;127.108;2023-01-19T01:59:51;5.78;;;3.60;;
48028;SDS011;33808;37.368;127.108;2023-01-19T02:02:31;8.07;;;4.43;;
48028;SDS011;33808;37.368;127.108;2023-01-19T02:05:28;5.38;;;3.80;;
48028;SDS011;33808;37.368;127.108;2023-01-19T02:08:14;7.03;;;4.03;;
48028;SDS011;33808;37.368;127.108;2023-01-19T02:11:20;7.18;;;4.20;;
48028;SDS011;33808;37.368;127.108;2023-01-19T02:14:24;6.60;;;4.20;;
48028;SDS011;33808;37.368;127.108;2023-01-19T02:16:59;7.05;;;3.83;;
48028;SDS011;33808;37.368;127.108;2023-01-19T02:19:30;7.47;;;4.38;;
48028;SDS011;33808;37.368;127.108;2023-01-19T02:24:45;7.15;;;3.58;;
48028;SDS011;33808;37.368;127.108;2023-01-19T02:27:17;8.10;;;4.13;;
48028;SDS011;33808;37.368;127.108;2023-01-19T02:29:48;9.02;;;4.43;;
48028;SDS011;33808;37.368;127.108;2023-01-19T02:32:17;9.23;;;3.92;;
48028;SDS011;33808;37.368;127.108;2023-01-19T02:34:50;9.83;;;4.27;;
48028;SDS011;33808;37.368;127.108;2023-01-19T02:37:40;6.88;;;3.83;;
48028;SDS011;33808;37.368;127.108;2023-01-19T02:40:29;7.28;;;3.78;;
48028;SDS011;33808;37.368;127.108;2023-01-19T02:43:18;7.45;;;4.03;;
48028;SDS011;33808;37.368;127.108;2023-01-19T02:46:10;7.78;;;4.43;;
48028;SDS011;33808;37.368;127.108;2023-01-19T02:48:40;7.00;;;4.05;;
48028;SDS011;33808;37.368;127.108;2023-01-19T02:51:22;8.07;;;4.35;;
48028;SDS011;33808;37.368;127.108;2023-01-19T02:54:08;7.60;;;4.18;;
48028;SDS011;33808;37.368;127.108;2023-01-19T03:05:32;5.68;;;3.55;;
48028;SDS011;33808;37.368;127.108;2023-01-19T03:08:22;7.75;;;4.10;;
48028;SDS011;33808;37.368;127.108;2023-01-19T03:11:04;6.43;;;3.85;;
48028;SDS011;33808;37.368;127.108;2023-01-19T03:16:51;9.25;;;4.38;;
48028;SDS011;33808;37.368;127.108;2023-01-19T03:19:25;8.25;;;4.50;;
48028;SDS011;33808;37.368;127.108;2023-01-19T03:25:03;7.82;;;4.30;;
48028;SDS011;33808;37.368;127.108;2023-01-19T03:27:37;6.95;;;4.25;;
48028;SDS011;33808;37.368;127.108;2023-01-19T03:30:10;6.68;;;4.25;;
48028;SDS011;33808;37.368;127.108;2023-01-19T03:32:52;6.45;;;4.00;;
48028;SDS011;33808;37.368;127.108;2023-01-19T03:35:28;9.77;;;4.28;;
48028;SDS011;33808;37.368;127.108;2023-01-19T03:38:02;6.43;;;3.80;;
48028;SDS011;33808;37.368;127.108;2023-01-19T03:40:36;7.28;;;3.75;;
48028;SDS011;33808;37.368;127.108;2023-01-19T03:44:00;7.18;;;3.55;;
48028;SDS011;33808;37.368;127.108;2023-01-19T03:46:51;7.50;;;4.28;;
48028;SDS011;33808;37.368;127.108;2023-01-19T03:49:24;7.13;;;3.50;;
48028;SDS011;33808;37.368;127.108;2023-01-19T03:52:03;7.10;;;4.18;;
48028;SDS011;33808;37.368;127.108;2023-01-19T03:54:52;7.30;;;4.20;;
48028;SDS011;33808;37.368;127.108;2023-01-19T03:57:55;7.45;;;4.50;;
48028;SDS011;33808;37.368;127.108;2023-01-19T04:00:25;6.28;;;3.88;;
48028;SDS011;33808;37.368;127.108;2023-01-19T04:02:55;7.80;;;4.28;;
48028;SDS011;33808;37.368;127.108;2023-01-19T04:05:25;7.07;;;4.40;;
48028;SDS011;33808;37.368;127.108;2023-01-19T04:07:55;7.00;;;3.90;;
48028;SDS011;33808;37.368;127.108;2023-01-19T04:10:25;7.03;;;3.92;;
48028;SDS011;33808;37.368;127.108;2023-01-19T04:12:59;6.90;;;3.50;;
48028;SDS011;33808;37.368;127.108;2023-01-19T04:15:31;6.53;;;4.38;;
48028;SDS011;33808;37.368;127.108;2023-01-19T04:18:30;6.50;;;3.85;;
48028;SDS011;33808;37.368;127.108;2023-01-19T04:21:07;8.05;;;3.75;;
48028;SDS011;33808;37.368;127.108;2023-01-19T04:24:08;7.65;;;4.30;;
48028;SDS011;33808;37.368;127.108;2023-01-19T04:26:39;7.80;;;4.28;;
48028;SDS011;33808;37.368;127.108;2023-01-19T04:29:09;8.20;;;3.47;;
48028;SDS011;33808;37.368;127.108;2023-01-19T04:31:42;6.00;;;3.97;;
48028;SDS011;33808;37.368;127.108;2023-01-19T04:34:12;6.88;;;3.92;;
48028;SDS011;33808;37.368;127.108;2023-01-19T04:36:45;6.23;;;3.80;;
48028;SDS011;33808;37.368;127.108;2023-01-19T04:39:18;6.97;;;4.30;;
48028;SDS011;33808;37.368;127.108;2023-01-19T04:44:21;6.97;;;4.05;;
48028;SDS011;33808;37.368;127.108;2023-01-19T04:46:51;7.13;;;4.13;;
48028;SDS011;33808;37.368;127.108;2023-01-19T04:49:21;6.07;;;4.30;;
48028;SDS011;33808;37.368;127.108;2023-01-19T04:51:52;7.90;;;4.18;;
48028;SDS011;33808;37.368;127.108;2023-01-19T04:54:22;6.93;;;4.28;;
48028;SDS011;33808;37.368;127.108;2023-01-19T04:56:52;6.60;;;3.85;;
48028;SDS011;33808;37.368;127.108;2023-01-19T04:59:22;9.50;;;4.43;;
48028;SDS011;33808;37.368;127.108;2023-01-19T05:01:52;7.32;;;4.15;;
48028;SDS011;33808;37.368;127.108;2023-01-19T05:05:05;8.27;;;4.22;;
48028;SDS011;33808;37.368;127.108;2023-01-19T05:07:38;7.88;;;3.95;;
48028;SDS011;33808;37.368;127.108;2023-01-19T05:10:11;4.72;;;3.80;;
48028;SDS011;33808;37.368;127.108;2023-01-19T05:12:43;7.18;;;4.32;;
48028;SDS011;33808;37.368;127.108;2023-01-19T05:15:33;6.68;;;3.67;;
48028;SDS011;33808;37.368;127.108;2023-01-19T05:18:23;5.80;;;3.75;;
48028;SDS011;33808;37.368;127.108;2023-01-19T05:21:13;6.57;;;4.22;;
48028;SDS011;33808;37.368;127.108;2023-01-19T05:24:22;6.40;;;3.85;;
48028;SDS011;33808;37.368;127.108;2023-01-19T05:26:52;7.68;;;4.30;;
48028;SDS011;33808;37.368;127.108;2023-01-19T05:29:21;7.43;;;4.43;;
48028;SDS011;33808;37.368;127.108;2023-01-19T05:31:51;6.63;;;4.43;;
48028;SDS011;33808;37.368;127.108;2023-01-19T05:35:21;6.22;;;4.10;;
48028;SDS011;33808;37.368;127.108;2023-01-19T05:38:01;5.93;;;3.60;;
48028;SDS011;33808;37.368;127.108;2023-01-19T05:40:47;5.45;;;4.05;;
48028;SDS011;33808;37.368;127.108;2023-01-19T05:44:04;6.85;;;3.83;;
48028;SDS011;33808;37.368;127.108;2023-01-19T05:46:33;7.20;;;4.20;;
48028;SDS011;33808;37.368;127.108;2023-01-19T05:49:03;7.57;;;4.07;;
48028;SDS011;33808;37.368;127.108;2023-01-19T05:51:50;6.53;;;3.95;;
48028;SDS011;33808;37.368;127.108;2023-01-19T05:55:15;6.13;;;3.90;;
48028;SDS011;33808;37.368;127.108;2023-01-19T05:57:45;8.32;;;4.25;;
48028;SDS011;33808;37.368;127.108;2023-01-19T06:00:15;7.00;;;4.15;;
48028;SDS011;33808;37.368;127.108;2023-01-19T06:02:45;7.05;;;4.18;;
48028;SDS011;33808;37.368;127.108;2023-01-19T06:05:16;5.82;;;3.88;;
48028;SDS011;33808;37.368;127.108;2023-01-19T06:07:50;6.72;;;4.05;;
48028;SDS011;33808;37.368;127.108;2023-01-19T06:10:20;6.30;;;3.65;;
48028;SDS011;33808;37.368;127.108;2023-01-19T06:12:49;6.78;;;4.18;;
48028;SDS011;33808;37.368;127.108;2023-01-19T06:15:20;5.18;;;3.45;;
48028;SDS011;33808;37.368;127.108;2023-01-19T06:17:50;7.45;;;4.20;;
48028;SDS011;33808;37.368;127.108;2023-01-19T06:20:19;7.07;;;4.05;;
48028;SDS011;33808;37.368;127.108;2023-01-19T06:22:49;5.85;;;3.80;;
48028;SDS011;33808;37.368;127.108;2023-01-19T06:25:19;7.55;;;3.30;;
48028;SDS011;33808;37.368;127.108;2023-01-19T06:27:49;5.60;;;4.07;;
48028;SDS011;33808;37.368;127.108;2023-01-19T06:30:18;5.88;;;4.05;;
48028;SDS011;33808;37.368;127.108;2023-01-19T06:32:48;6.20;;;4.00;;
48028;SDS011;33808;37.368;127.108;2023-01-19T06:35:21;6.05;;;3.50;;
48028;SDS011;33808;37.368;127.108;2023-01-19T06:37:51;7.13;;;3.67;;
48028;SDS011;33808;37.368;127.108;2023-01-19T06:40:25;5.03;;;3.33;;
48028;SDS011;33808;37.368;127.108;2023-01-19T06:42:57;6.90;;;4.10;;
48028;SDS011;33808;37.368;127.108;2023-01-19T06:45:28;6.78;;;4.00;;
48028;SDS011;33808;37.368;127.108;2023-01-19T06:47:59;5.78;;;4.18;;
48028;SDS011;33808;37.368;127.108;2023-01-19T06:50:31;6.97;;;4.05;;
48028;SDS011;33808;37.368;127.108;2023-01-19T06:53:06;7.70;;;4.25;;
48028;SDS011;33808;37.368;127.108;2023-01-19T06:55:37;7.32;;;3.55;;
48028;SDS011;33808;37.368;127.108;2023-01-19T06:58:09;7.05;;;4.25;;
48028;SDS011;33808;37.368;127.108;2023-01-19T07:00:45;8.48;;;3.80;;
48028;SDS011;33808;37.368;127.108;2023-01-19T07:03:35;6.05;;;3.63;;
48028;SDS011;33808;37.368;127.108;2023-01-19T07:06:56;7.43;;;4.18;;
48028;SDS011;33808;37.368;127.108;2023-01-19T07:10:26;8.07;;;4.00;;
48028;SDS011;33808;37.368;127.108;2023-01-19T07:13:58;8.32;;;3.92;;
48028;SDS011;33808;37.368;127.108;2023-01-19T07:17:27;7.72;;;4.50;;
48028;SDS011;33808;37.368;127.108;2023-01-19T07:20:45;6.25;;;3.83;;
48028;SDS011;33808;37.368;127.108;2023-01-19T07:24:14;7.05;;;4.03;;
48028;SDS011;33808;37.368;127.108;2023-01-19T07:27:42;6.97;;;3.78;;
48028;SDS011;33808;37.368;127.108;2023-01-19T07:31:13;5.95;;;3.67;;
48028;SDS011;33808;37.368;127.108;2023-01-19T07:34:41;5.88;;;3.60;;
48028;SDS011;33808;37.368;127.108;2023-01-19T07:38:10;7.53;;;4.05;;
48028;SDS011;33808;37.368;127.108;2023-01-19T07:41:39;7.93;;;4.07;;
48028;SDS011;33808;37.368;127.108;2023-01-19T07:45:08;7.75;;;3.90;;
48028;SDS011;33808;37.368;127.108;2023-01-19T07:48:37;6.10;;;3.67;;
48028;SDS011;33808;37.368;127.108;2023-01-19T07:52:05;7.65;;;4.15;;
48028;SDS011;33808;37.368;127.108;2023-01-19T07:55:35;12.00;;;4.32;;
48028;SDS011;33808;37.368;127.108;2023-01-19T07:59:03;8.73;;;4.20;;
48028;SDS011;33808;37.368;127.108;2023-01-19T08:02:32;10.10;;;4.53;;
48028;SDS011;33808;37.368;127.108;2023-01-19T08:06:01;8.18;;;4.53;;
48028;SDS011;33808;37.368;127.108;2023-01-19T08:09:29;6.32;;;3.50;;
48028;SDS011;33808;37.368;127.108;2023-01-19T08:12:58;8.80;;;4.50;;
48028;SDS011;33808;37.368;127.108;2023-01-19T08:16:27;8.38;;;4.15;;
48028;SDS011;33808;37.368;127.108;2023-01-19T08:32:57;6.88;;;4.72;;
48028;SDS011;33808;37.368;127.108;2023-01-19T08:35:38;7.80;;;4.65;;
48028;SDS011;33808;37.368;127.108;2023-01-19T08:39:05;6.80;;;4.68;;
48028;SDS011;33808;37.368;127.108;2023-01-19T08:42:34;9.40;;;4.45;;
48028;SDS011;33808;37.368;127.108;2023-01-19T08:46:05;6.05;;;3.97;;
48028;SDS011;33808;37.368;127.108;2023-01-19T08:49:34;7.47;;;4.05;;
48028;SDS011;33808;37.368;127.108;2023-01-19T08:53:03;10.02;;;4.53;;
48028;SDS011;33808;37.368;127.108;2023-01-19T08:56:31;7.47;;;4.25;;
48028;SDS011;33808;37.368;127.108;2023-01-19T09:00:00;8.50;;;4.57;;
48028;SDS011;33808;37.368;127.108;2023-01-19T09:03:30;12.13;;;4.55;;
48028;SDS011;33808;37.368;127.108;2023-01-19T09:06:26;9.27;;;4.53;;
48028;SDS011;33808;37.368;127.108;2023-01-19T09:09:57;11.23;;;5.13;;
48028;SDS011;33808;37.368;127.108;2023-01-19T09:13:26;7.82;;;4.72;;
48028;SDS011;33808;37.368;127.108;2023-01-19T09:16:54;6.95;;;4.35;;
48028;SDS011;33808;37.368;127.108;2023-01-19T09:20:24;6.88;;;4.45;;
48028;SDS011;33808;37.368;127.108;2023-01-19T09:23:52;8.55;;;4.32;;
48028;SDS011;33808;37.368;127.108;2023-01-19T09:27:21;6.28;;;4.25;;
48028;SDS011;33808;37.368;127.108;2023-01-19T09:30:50;8.48;;;4.68;;
48028;SDS011;33808;37.368;127.108;2023-01-19T09:34:20;9.48;;;4.75;;
48028;SDS011;33808;37.368;127.108;2023-01-19T09:37:48;8.80;;;4.70;;
48028;SDS011;33808;37.368;127.108;2023-01-19T09:41:20;13.80;;;4.78;;
48028;SDS011;33808;37.368;127.108;2023-01-19T09:44:49;7.05;;;4.45;;
48028;SDS011;33808;37.368;127.108;2023-01-19T09:56:45;8.85;;;4.97;;
48028;SDS011;33808;37.368;127.108;2023-01-19T10:01:58;10.65;;;5.03;;
48028;SDS011;33808;37.368;127.108;2023-01-19T10:05:04;11.05;;;4.78;;
48028;SDS011;33808;37.368;127.108;2023-01-19T10:08:11;9.32;;;4.40;;
48028;SDS011;33808;37.368;127.108;2023-01-19T10:10:56;9.35;;;4.70;;
48028;SDS011;33808;37.368;127.108;2023-01-19T10:21:51;9.45;;;4.63;;
48028;SDS011;33808;37.368;127.108;2023-01-19T10:27:36;9.57;;;4.82;;
48028;SDS011;33808;37.368;127.108;2023-01-19T10:30:07;8.38;;;4.75;;
48028;SDS011;33808;37.368;127.108;2023-01-19T10:33:35;9.23;;;4.40;;
48028;SDS011;33808;37.368;127.108;2023-01-19T10:40:36;9.73;;;5.07;;
48028;SDS011;33808;37.368;127.108;2023-01-19T10:44:10;8.55;;;4.78;;
48028;SDS011;33808;37.368;127.108;2023-01-19T10:47:39;11.18;;;5.45;;
48028;SDS011;33808;37.368;127.108;2023-01-19T10:51:09;11.15;;;5.28;;
48028;SDS011;33808;37.368;127.108;2023-01-19T10:54:37;8.13;;;4.38;;
48028;SDS011;33808;37.368;127.108;2023-01-19T10:58:06;14.02;;;5.15;;
48028;SDS011;33808;37.368;127.108;2023-01-19T11:01:10;8.25;;;4.75;;
48028;SDS011;33808;37.368;127.108;2023-01-19T11:04:26;10.80;;;5.15;;
48028;SDS011;33808;37.368;127.108;2023-01-19T11:07:54;10.48;;;5.10;;
48028;SDS011;33808;37.368;127.108;2023-01-19T11:11:30;11.43;;;4.90;;
48028;SDS011;33808;37.368;127.108;2023-01-19T11:14:57;12.40;;;5.10;;
48028;SDS011;33808;37.368;127.108;2023-01-19T11:18:36;7.55;;;4.60;;
48028;SDS011;33808;37.368;127.108;2023-01-19T11:22:25;7.45;;;4.10;;
48028;SDS011;33808;37.368;127.108;2023-01-19T11:25:23;9.85;;;4.60;;
48028;SDS011;33808;37.368;127.108;2023-01-19T11:27:58;15.10;;;4.85;;
48028;SDS011;33808;37.368;127.108;2023-01-19T11:30:28;10.02;;;4.97;;
48028;SDS011;33808;37.368;127.108;2023-01-19T11:32:59;9.55;;;4.60;;
48028;SDS011;33808;37.368;127.108;2023-01-19T11:35:35;11.55;;;4.75;;
48028;SDS011;33808;37.368;127.108;2023-01-19T11:40:43;11.50;;;4.15;;
48028;SDS011;33808;37.368;127.108;2023-01-19T11:43:21;10.60;;;4.50;;
48028;SDS011;33808;37.368;127.108;2023-01-19T11:46:13;10.55;;;3.90;;
48028;SDS011;33808;37.368;127.108;2023-01-19T11:48:58;12.15;;;4.57;;
48028;SDS011;33808;37.368;127.108;2023-01-19T11:51:42;10.90;;;4.45;;
48028;SDS011;33808;37.368;127.108;2023-01-19T11:54:37;9.00;;;4.45;;
48028;SDS011;33808;37.368;127.108;2023-01-19T11:58:04;9.38;;;4.20;;
48028;SDS011;33808;37.368;127.108;2023-01-19T12:01:33;11.45;;;4.22;;
48028;SDS011;33808;37.368;127.108;2023-01-19T12:05:04;8.50;;;4.55;;
48028;SDS011;33808;37.368;127.108;2023-01-19T12:08:32;9.32;;;4.72;;
48028;SDS011;33808;37.368;127.108;2023-01-19T12:12:02;8.48;;;4.15;;
48028;SDS011;33808;37.368;127.108;2023-01-19T12:22:13;7.13;;;3.88;;
48028;SDS011;33808;37.368;127.108;2023-01-19T12:28:37;8.20;;;3.78;;
48028;SDS011;33808;37.368;127.108;2023-01-19T12:33:43;10.40;;;4.07;;
48028;SDS011;33808;37.368;127.108;2023-01-19T12:41:45;7.47;;;3.63;;
48028;SDS011;33808;37.368;127.108;2023-01-19T12:44:19;7.45;;;4.18;;
48028;SDS011;33808;37.368;127.108;2023-01-19T12:46:58;12.00;;;3.97;;
48028;SDS011;33808;37.368;127.108;2023-01-19T12:49:44;7.57;;;3.88;;
48028;SDS011;33808;37.368;127.108;2023-01-19T12:52:46;9.32;;;3.75;;
48028;SDS011;33808;37.368;127.108;2023-01-19T12:55:20;6.53;;;3.70;;
48028;SDS011;33808;37.368;127.108;2023-01-19T12:57:55;6.53;;;3.88;;
48028;SDS011;33808;37.368;127.108;2023-01-19T13:00:31;5.03;;;3.40;;
48028;SDS011;33808;37.368;127.108;2023-01-19T13:03:02;6.85;;;3.83;;
48028;SDS011;33808;37.368;127.108;2023-01-19T13:05:53;6.40;;;3.40;;
48028;SDS011;33808;37.368;127.108;2023-01-19T13:08:25;8.85;;;3.85;;
48028;SDS011;33808;37.368;127.108;2023-01-19T13:19:40;6.25;;;3.30;;
48028;SDS011;33808;37.368;127.108;2023-01-19T13:25:27;6.65;;;3.55;;
48028;SDS011;33808;37.368;127.108;2023-01-19T13:28:45;7.63;;;3.50;;
48028;SDS011;33808;37.368;127.108;2023-01-19T13:31:41;11.27;;;3.38;;
48028;SDS011;33808;37.368;127.108;2023-01-19T13:34:43;18.48;;;3.72;;
48028;SDS011;33808;37.368;127.108;2023-01-19T13:37:19;10.27;;;3.63;;
48028;SDS011;33808;37.368;127.108;2023-01-19T13:39:57;6.45;;;3.03;;
48028;SDS011;33808;37.368;127.108;2023-01-19T13:42:29;7.32;;;3.72;;
48028;SDS011;33808;37.368;127.108;2023-01-19T13:47:56;8.32;;;3.30;;
48028;SDS011;33808;37.368;127.108;2023-01-19T13:50:30;7.05;;;3.55;;
48028;SDS011;33808;37.368;127.108;2023-01-19T13:53:12;6.18;;;3.20;;
48028;SDS011;33808;37.368;127.108;2023-01-19T13:55:50;10.75;;;3.50;;
48028;SDS011;33808;37.368;127.108;2023-01-19T13:58:34;5.00;;;3.10;;
48028;SDS011;33808;37.368;127.108;2023-01-19T14:01:04;6.28;;;3.00;;
48028;SDS011;33808;37.368;127.108;2023-01-19T14:03:37;12.68;;;3.85;;
48028;SDS011;33808;37.368;127.108;2023-01-19T14:06:19;4.93;;;3.10;;
48028;SDS011;33808;37.368;127.108;2023-01-19T14:09:17;6.45;;;3.22;;
48028;SDS011;33808;37.368;127.108;2023-01-19T14:12:05;6.20;;;3.30;;
48028;SDS011;33808;37.368;127.108;2023-01-19T14:14:38;6.43;;;3.17;;
48028;SDS011;33808;37.368;127.108;2023-01-19T14:17:43;6.88;;;2.70;;
48028;SDS011;33808;37.368;127.108;2023-01-19T14:20:05;4.18;;;3.22;;
48028;SDS011;33808;37.368;127.108;2023-01-19T14:22:55;8.38;;;3.25;;
48028;SDS011;33808;37.368;127.108;2023-01-19T14:25:32;5.63;;;3.65;;
48028;SDS011;33808;37.368;127.108;2023-01-19T14:30:59;6.25;;;3.03;;
48028;SDS011;33808;37.368;127.108;2023-01-19T14:33:32;8.93;;;3.22;;
48028;SDS011;33808;37.368;127.108;2023-01-19T14:38:53;7.53;;;3.20;;
48028;SDS011;33808;37.368;127.108;2023-01-19T14:41:27;5.25;;;2.72;;
48028;SDS011;33808;37.368;127.108;2023-01-19T14:43:58;5.28;;;2.95;;
48028;SDS011;33808;37.368;127.108;2023-01-19T14:46:29;6.07;;;2.83;;
48028;SDS011;33808;37.368;127.108;2023-01-19T14:49:00;5.00;;;2.88;;
48028;SDS011;33808;37.368;127.108;2023-01-19T14:51:33;13.93;;;3.33;;
48028;SDS011;33808;37.368;127.108;2023-01-19T14:54:04;6.47;;;2.80;;
48028;SDS011;33808;37.368;127.108;2023-01-19T14:56:34;6.30;;;2.85;;
48028;SDS011;33808;37.368;127.108;2023-01-19T14:59:07;4.68;;;2.90;;
48028;SDS011;33808;37.368;127.108;2023-01-19T15:01:38;5.47;;;3.28;;
48028;SDS011;33808;37.368;127.108;2023-01-19T15:05:07;5.10;;;2.72;;
48028;SDS011;33808;37.368;127.108;2023-01-19T15:08:37;4.97;;;3.00;;
48028;SDS011;33808;37.368;127.108;2023-01-19T15:12:05;6.38;;;3.10;;
48028;SDS011;33808;37.368;127.108;2023-01-19T15:15:33;4.45;;;2.60;;
48028;SDS011;33808;37.368;127.108;2023-01-19T15:19:02;6.75;;;2.80;;
48028;SDS011;33808;37.368;127.108;2023-01-19T15:22:31;3.47;;;2.58;;
48028;SDS011;33808;37.368;127.108;2023-01-19T15:26:01;3.92;;;2.60;;
48028;SDS011;33808;37.368;127.108;2023-01-19T15:29:28;6.53;;;2.30;;
48028;SDS011;33808;37.368;127.108;2023-01-19T15:32:57;3.65;;;2.70;;
48028;SDS011;33808;37.368;127.108;2023-01-19T15:36:27;5.95;;;2.80;;
48028;SDS011;33808;37.368;127.108;2023-01-19T15:39:56;3.58;;;2.63;;
48028;SDS011;33808;37.368;127.108;2023-01-19T15:43:25;5.07;;;2.60;;
48028;SDS011;33808;37.368;127.108;2023-01-19T15:46:54;3.45;;;2.28;;
48028;SDS011;33808;37.368;127.108;2023-01-19T15:50:23;4.72;;;2.45;;
48028;SDS011;33808;37.368;127.108;2023-01-19T15:53:51;5.40;;;2.50;;
48028;SDS011;33808;37.368;127.108;2023-01-19T15:57:20;4.80;;;2.60;;
48028;SDS011;33808;37.368;127.108;2023-01-19T16:00:52;4.28;;;2.50;;
48028;SDS011;33808;37.368;127.108;2023-01-19T16:04:20;5.38;;;2.40;;
48028;SDS011;33808;37.368;127.108;2023-01-19T16:07:59;5.57;;;2.95;;
48028;SDS011;33808;37.368;127.108;2023-01-19T16:10:29;5.03;;;2.13;;
48028;SDS011;33808;37.368;127.108;2023-01-19T16:13:58;3.30;;;2.28;;
48028;SDS011;33808;37.368;127.108;2023-01-19T16:17:26;3.97;;;2.20;;
48028;SDS011;33808;37.368;127.108;2023-01-19T16:20:55;2.60;;;1.88;;
48028;SDS011;33808;37.368;127.108;2023-01-19T16:24:24;5.00;;;2.58;;
48028;SDS011;33808;37.368;127.108;2023-01-19T16:27:53;7.43;;;2.67;;
48028;SDS011;33808;37.368;127.108;2023-01-19T16:52:42;4.55;;;2.50;;
48028;SDS011;33808;37.368;127.108;2023-01-19T16:56:12;3.03;;;2.05;;
48028;SDS011;33808;37.368;127.108;2023-01-19T16:59:40;2.92;;;2.00;;
48028;SDS011;33808;37.368;127.108;2023-01-19T17:03:09;3.45;;;2.33;;
48028;SDS011;33808;37.368;127.108;2023-01-19T17:06:38;3.58;;;2.20;;
48028;SDS011;33808;37.368;127.108;2023-01-19T17:10:06;3.10;;;2.30;;
48028;SDS011;33808;37.368;127.108;2023-01-19T17:13:35;5.00;;;2.30;;
48028;SDS011;33808;37.368;127.108;2023-01-19T17:17:04;3.45;;;2.25;;
48028;SDS011;33808;37.368;127.108;2023-01-19T17:20:02;5.47;;;2.55;;
48028;SDS011;33808;37.368;127.108;2023-01-19T17:23:31;5.95;;;2.47;;
48028;SDS011;33808;37.368;127.108;2023-01-19T17:26:59;4.30;;;2.53;;
48028;SDS011;33808;37.368;127.108;2023-01-19T17:30:28;3.00;;;2.17;;
48028;SDS011;33808;37.368;127.108;2023-01-19T17:33:12;3.33;;;2.17;;
48028;SDS011;33808;37.368;127.108;2023-01-19T17:35:42;4.55;;;2.58;;
48028;SDS011;33808;37.368;127.108;2023-01-19T17:38:12;3.72;;;2.30;;
48028;SDS011;33808;37.368;127.108;2023-01-19T17:40:42;3.42;;;2.40;;
48028;SDS011;33808;37.368;127.108;2023-01-19T17:43:12;3.70;;;2.10;;
48028;SDS011;33808;37.368;127.108;2023-01-19T17:45:42;5.80;;;2.15;;
48028;SDS011;33808;37.368;127.108;2023-01-19T17:48:11;4.93;;;2.72;;
48028;SDS011;33808;37.368;127.108;2023-01-19T17:50:42;4.68;;;2.75;;
48028;SDS011;33808;37.368;127.108;2023-01-19T17:53:12;6.57;;;2.40;;
48028;SDS011;33808;37.368;127.108;2023-01-19T17:55:42;3.78;;;2.80;;
48028;SDS011;33808;37.368;127.108;2023-01-19T17:58:12;5.88;;;2.40;;
48028;SDS011;33808;37.368;127.108;2023-01-19T18:00:42;4.47;;;2.35;;
48028;SDS011;33808;37.368;127.108;2023-01-19T18:03:11;4.47;;;2.50;;
48028;SDS011;33808;37.368;127.108;2023-01-19T18:05:41;4.60;;;2.33;;
48028;SDS011;33808;37.368;127.108;2023-01-19T18:08:11;5.15;;;2.72;;
48028;SDS011;33808;37.368;127.108;2023-01-19T18:10:57;3.50;;;2.80;;
48028;SDS011;33808;37.368;127.108;2023-01-19T18:13:28;3.25;;;2.42;;
48028;SDS011;33808;37.368;127.108;2023-01-19T18:16:02;5.38;;;2.42;;
48028;SDS011;33808;37.368;127.108;2023-01-19T18:19:03;4.78;;;2.53;;
48028;SDS011;33808;37.368;127.108;2023-01-19T18:21:58;4.55;;;2.58;;
48028;SDS011;33808;37.368;127.108;2023-01-19T18:24:47;5.55;;;2.78;;
48028;SDS011;33808;37.368;127.108;2023-01-19T18:27:17;3.97;;;2.50;;
48028;SDS011;33808;37.368;127.108;2023-01-19T18:29:49;5.55;;;2.33;;
48028;SDS011;33808;37.368;127.108;2023-01-19T18:32:19;5.82;;;2.70;;
48028;SDS011;33808;37.368;127.108;2023-01-19T18:34:50;5.13;;;2.92;;
48028;SDS011;33808;37.368;127.108;2023-01-19T18:37:21;4.28;;;2.75;;
48028;SDS011;33808;37.368;127.108;2023-01-19T18:41:12;6.60;;;3.00;;
48028;SDS011;33808;37.368;127.108;2023-01-19T18:44:19;3.13;;;2.42;;
48028;SDS011;33808;37.368;127.108;2023-01-19T18:46:49;5.97;;;2.72;;
48028;SDS011;33808;37.368;127.108;2023-01-19T18:49:21;4.63;;;2.42;;
48028;SDS011;33808;37.368;127.108;2023-01-19T18:51:51;4.80;;;2.75;;
48028;SDS011;33808;37.368;127.108;2023-01-19T18:54:21;6.50;;;2.70;;
48028;SDS011;33808;37.368;127.108;2023-01-19T18:56:52;5.25;;;3.05;;
48028;SDS011;33808;37.368;127.108;2023-01-19T18:59:23;4.40;;;2.95;;
48028;SDS011;33808;37.368;127.108;2023-01-19T19:01:58;5.03;;;2.80;;
48028;SDS011;33808;37.368;127.108;2023-01-19T19:04:55;6.35;;;3.00;;
48028;SDS011;33808;37.368;127.108;2023-01-19T19:07:42;5.18;;;2.55;;
48028;SDS011;33808;37.368;127.108;2023-01-19T19:11:10;6.25;;;2.53;;
48028;SDS011;33808;37.368;127.108;2023-01-19T19:14:39;5.55;;;2.88;;
48028;SDS011;33808;37.368;127.108;2023-01-19T19:18:08;6.18;;;3.03;;
48028;SDS011;33808;37.368;127.108;2023-01-19T19:21:37;6.72;;;2.25;;
48028;SDS011;33808;37.368;127.108;2023-01-19T19:25:06;5.53;;;2.58;;
48028;SDS011;33808;37.368;127.108;2023-01-19T19:28:35;4.57;;;2.67;;
48028;SDS011;33808;37.368;127.108;2023-01-19T19:32:03;5.80;;;2.72;;
48028;SDS011;33808;37.368;127.108;2023-01-19T19:35:32;7.40;;;3.03;;
48028;SDS011;33808;37.368;127.108;2023-01-19T19:39:01;4.22;;;2.55;;
48028;SDS011;33808;37.368;127.108;2023-01-19T19:41:30;6.85;;;2.65;;
48028;SDS011;33808;37.368;127.108;2023-01-19T19:44:59;5.80;;;2.45;;
48028;SDS011;33808;37.368;127.108;2023-01-19T19:47:29;6.97;;;3.10;;
48028;SDS011;33808;37.368;127.108;2023-01-19T19:49:59;5.95;;;3.15;;
48028;SDS011;33808;37.368;127.108;2023-01-19T19:55:07;4.05;;;2.67;;
48028;SDS011;33808;37.368;127.108;2023-01-19T19:57:38;5.05;;;2.60;;
48028;SDS011;33808;37.368;127.108;2023-01-19T20:00:28;4.82;;;2.58;;
48028;SDS011;33808;37.368;127.108;2023-01-19T20:02:59;6.63;;;2.80;;
48028;SDS011;33808;37.368;127.108;2023-01-19T20:05:30;7.88;;;2.85;;
48028;SDS011;33808;37.368;127.108;2023-01-19T20:08:20;7.32;;;2.75;;
48028;SDS011;33808;37.368;127.108;2023-01-19T20:11:01;5.45;;;2.67;;
48028;SDS011;33808;37.368;127.108;2023-01-19T20:13:36;7.78;;;2.95;;
48028;SDS011;33808;37.368;127.108;2023-01-19T20:16:21;8.45;;;3.42;;
48028;SDS011;33808;37.368;127.108;2023-01-19T20:19:50;7.82;;;3.30;;
48028;SDS011;33808;37.368;127.108;2023-01-19T20:23:18;7.90;;;2.90;;
48028;SDS011;33808;37.368;127.108;2023-01-19T20:26:49;7.00;;;3.08;;
48028;SDS011;33808;37.368;127.108;2023-01-19T20:30:16;6.97;;;3.15;;
48028;SDS011;33808;37.368;127.108;2023-01-19T20:33:46;7.65;;;3.90;;
48028;SDS011;33808;37.368;127.108;2023-01-19T20:37:14;12.02;;;3.88;;
48028;SDS011;33808;37.368;127.108;2023-01-19T20:40:42;16.00;;;3.60;;
48028;SDS011;33808;37.368;127.108;2023-01-19T20:44:12;13.00;;;3.45;;
48028;SDS011;33808;37.368;127.108;2023-01-19T20:47:40;7.35;;;3.63;;
48028;SDS011;33808;37.368;127.108;2023-01-19T20:51:09;11.07;;;3.35;;
48028;SDS011;33808;37.368;127.108;2023-01-19T20:54:37;8.07;;;3.22;;
48028;SDS011;33808;37.368;127.108;2023-01-19T20:58:06;9.35;;;3.22;;
48028;SDS011;33808;37.368;127.108;2023-01-19T21:01:35;8.90;;;3.47;;
48028;SDS011;33808;37.368;127.108;2023-01-19T21:05:04;11.65;;;3.90;;